Time;durP1;ratioP1;P1;durP2;ratioP2;P2;SDS_P1;SDS_P2;PMS_P1;PMS_P2;Temp;Humidity;BMP_temperature;BMP_pressure;BME280_temperature;BME280_humidity;BME280_pressure;Samples;Min_cycle;Max_cycle;Signal;HPM_P1;HPM_P2
2023/03/13 00:02:21;;;;;;;9.85;4.85;;;6.40;1.00;;;;;;5071302;29;20047;-70
2023/03/13 00:04:55;;;;;;;7.18;4.35;;;6.40;1.00;;;;;;5063857;29;20511;-70
2023/03/13 00:07:26;;;;;;;8.20;4.30;;;6.40;1.00;;;;;;5074433;29;20051;-70
2023/03/13 00:09:58;;;;;;;6.68;4.10;;;6.40;1.00;;;;;;5057580;29;20043;-69
2023/03/13 00:12:32;;;;;;;7.80;5.03;;;6.30;1.00;;;;;;5071782;28;20034;-71
2023/03/13 00:15:04;;;;;;;8.20;4.45;;;6.20;74.60;;;;;;5114244;28;20684;-71
2023/03/13 00:17:38;;;;;;;7.63;3.70;;;6.10;99.90;;;;;;5083329;28;20049;-70
2023/03/13 00:20:16;;;;;;;8.73;4.82;;;6.00;99.90;;;;;;5099287;28;20043;-69
2023/03/13 00:22:49;;;;;;;9.68;4.70;;;6.00;99.90;;;;;;5098431;28;20030;-69
2023/03/13 00:25:26;;;;;;;8.60;4.65;;;5.90;1.00;;;;;;5067404;28;20251;-70
2023/03/13 00:28:00;;;;;;;5.45;4.07;;;5.90;1.00;;;;;;5097055;28;20381;-68
2023/03/13 00:30:34;;;;;;;;;;;6.00;99.90;;;;;;5080961;28;20057;-71
2023/03/13 00:33:11;;;;;;;6.80;3.03;;;6.00;1.00;;;;;;5116885;28;20327;-70
2023/03/13 00:35:45;;;;;;;5.13;3.13;;;6.10;1.00;;;;;;5098422;29;20041;-69
2023/03/13 00:38:17;;;;;;;5.82;2.85;;;6.10;1.00;;;;;;5082718;29;20055;-69
2023/03/13 00:40:51;;;;;;;4.78;2.28;;;6.20;1.00;;;;;;5082251;29;20035;-71
2023/03/13 00:43:23;;;;;;;2.63;2.00;;;6.20;1.00;;;;;;5116869;28;20046;-68
2023/03/13 00:45:57;;;;;;;2.22;1.70;;;6.40;1.00;;;;;;5068847;28;20046;-70
2023/03/13 00:48:29;;;;;;;4.35;2.08;;;6.40;1.00;;;;;;5101621;28;20355;-72
2023/03/13 00:51:01;;;;;;;3.78;1.65;;;6.40;1.00;;;;;;5085607;28;20039;-68
2023/03/13 00:53:35;;;;;;;2.97;1.75;;;6.30;1.00;;;;;;5102588;28;20046;-70
2023/03/13 00:56:15;;;;;;;2.10;1.60;;;6.20;1.00;;;;;;5116730;28;20043;-70
2023/03/13 00:58:50;;;;;;;3.45;1.65;;;6.10;1.00;;;;;;5084654;28;20052;-70
2023/03/13 01:01:30;;;;;;;2.78;2.22;;;6.00;1.00;;;;;;5183723;23;20061;-71
2023/03/13 01:04:11;;;;;;;3.63;2.58;;;5.90;6.60;;;;;;5143428;28;20046;-71
2023/03/13 01:06:44;;;;;;;5.03;2.88;;;5.90;2.50;;;;;;5126426;28;20057;-69
2023/03/13 01:09:16;;;;;;;5.57;2.47;;;5.80;1.00;;;;;;5154938;28;20046;-71
2023/03/13 01:11:51;;;;;;;4.78;2.15;;;5.70;1.00;;;;;;5153299;28;20053;-70
2023/03/13 01:14:25;;;;;;;;;;;5.70;1.00;;;;;;5146565;28;20046;-69
2023/03/13 01:16:59;;;;;;;2.83;1.70;;;5.60;2.00;;;;;;5137293;28;20099;-70
2023/03/13 01:19:31;;;;;;;4.18;2.22;;;5.70;23.40;;;;;;5137338;28;20042;-69
2023/03/13 01:22:02;;;;;;;3.58;2.38;;;5.60;17.00;;;;;;5139071;28;20041;-69
2023/03/13 01:24:38;;;;;;;4.00;2.58;;;5.60;1.00;;;;;;5134839;28;20452;-71
2023/03/13 01:27:10;;;;;;;4.63;3.00;;;5.60;1.00;;;;;;5136557;28;20042;-71
2023/03/13 01:29:41;;;;;;;5.50;3.20;;;5.60;1.00;;;;;;5139479;28;20037;-69
2023/03/13 01:32:14;;;;;;;3.58;2.80;;;5.60;1.00;;;;;;5120982;28;20038;-72
2023/03/13 01:34:46;;;;;;;4.00;2.60;;;5.60;1.00;;;;;;5137118;28;20042;-72
2023/03/13 01:37:20;;;;;;;4.40;2.38;;;5.60;1.00;;;;;;5149602;28;20567;-72
2023/03/13 01:39:51;;;;;;;3.13;2.47;;;5.50;1.00;;;;;;5151420;28;20484;-71
2023/03/13 01:42:23;;;;;;;3.97;2.20;;;5.50;1.00;;;;;;5118095;28;20043;-68
2023/03/13 01:44:58;;;;;;;3.92;2.17;;;5.40;1.00;;;;;;5133075;28;20038;-70
2023/03/13 01:47:31;;;;;;;3.63;2.17;;;5.40;1.00;;;;;;5132220;28;20053;-69
2023/03/13 01:50:05;;;;;;;2.10;1.90;;;5.50;16.10;;;;;;5119357;28;20042;-69
2023/03/13 01:52:38;;;;;;;3.75;1.83;;;5.50;58.30;;;;;;5138436;28;20050;-70
2023/03/13 01:55:15;;;;;;;2.20;1.60;;;5.50;75.10;;;;;;5154237;28;20262;-70
2023/03/13 01:57:51;;;;;;;2.38;1.40;;;5.40;99.90;;;;;;5137493;28;20057;-70
2023/03/13 02:00:31;;;;;;;2.15;1.33;;;5.60;99.90;;;;;;5120933;28;20686;-67
2023/03/13 02:03:12;;;;;;;3.00;1.20;;;5.80;99.90;;;;;;5137707;28;20038;-70
2023/03/13 02:05:47;;;;;;;3.90;1.33;;;6.10;99.90;;;;;;5141538;28;20045;-69
2023/03/13 02:08:32;;;;;;;;;;;6.40;99.90;;;;;;5147695;28;20045;-72
2023/03/13 02:11:43;;;;;;;2.35;1.20;;;6.70;92.60;;;;;;5153718;28;19916;-70
2023/03/13 02:14:18;;;;;;;1.20;1.10;;;7.10;1.30;;;;;;5153772;28;20042;-68
2023/03/13 02:16:55;;;;;;;1.25;1.02;;;7.40;1.00;;;;;;5152217;28;20474;-72
2023/03/13 02:19:50;;;;;;;1.52;1.17;;;7.50;1.00;;;;;;5143614;28;20045;-71
2023/03/13 02:22:40;;;;;;;2.97;1.52;;;7.70;1.00;;;;;;5137267;28;20242;-70
2023/03/13 02:25:23;;;;;;;3.85;1.70;;;7.90;1.00;;;;;;5141091;28;20048;-72
2023/03/13 02:28:06;;;;;;;1.42;1.17;;;8.00;1.00;;;;;;5158600;28;20056;-71
2023/03/13 02:30:44;;;;;;;2.15;1.17;;;8.10;1.00;;;;;;5140372;28;20210;-70
2023/03/13 02:33:19;;;;;;;3.47;1.30;;;8.20;1.00;;;;;;5158476;28;20105;-68
2023/03/13 02:35:52;;;;;;;5.00;1.08;;;8.20;1.00;;;;;;5169219;28;20050;-71
2023/03/13 02:38:29;;;;;;;3.83;1.85;;;8.30;1.00;;;;;;5158529;28;20041;-71
2023/03/13 02:41:09;;;;;;;3.35;2.08;;;8.20;1.00;;;;;;5148355;28;20040;-70
2023/03/13 02:43:45;;;;;;;3.08;2.40;;;7.80;1.00;;;;;;5137452;28;20037;-68
2023/03/13 02:46:22;;;;;;;7.03;2.42;;;7.40;1.00;;;;;;5160460;28;20053;-71
2023/03/13 02:48:59;;;;;;;4.45;2.67;;;7.10;1.00;;;;;;5144345;28;20472;-70
2023/03/13 02:51:44;;;;;;;3.72;2.42;;;7.00;1.00;;;;;;5147377;28;20042;-69
2023/03/13 02:54:23;;;;;;;5.40;3.10;;;6.90;1.00;;;;;;5143655;28;20048;-70
2023/03/13 02:57:01;;;;;;;3.10;2.10;;;6.80;1.00;;;;;;5153303;28;20042;-71
2023/03/13 02:59:34;;;;;;;3.72;1.60;;;7.00;10.80;;;;;;5124577;28;20051;-70
2023/03/13 03:02:06;;;;;;;3.83;2.00;;;7.30;1.00;;;;;;5187363;28;20053;-70
2023/03/13 03:04:41;;;;;;;1.42;1.23;;;7.30;1.00;;;;;;5151715;28;20053;-71
2023/03/13 03:07:16;;;;;;;1.60;1.00;;;7.60;1.00;;;;;;5157614;28;20049;-71
2023/03/13 03:09:52;;;;;;;1.63;0.95;;;7.90;1.00;;;;;;5174533;28;20044;-70
2023/03/13 03:12:26;;;;;;;1.48;0.90;;;8.10;1.00;;;;;;5172352;28;20060;-70
2023/03/13 03:14:58;;;;;;;;;;;8.30;1.00;;;;;;5144355;28;20387;-70
2023/03/13 03:17:30;;;;;;;1.95;1.10;;;8.40;1.00;;;;;;5145261;28;19921;-72
2023/03/13 03:20:10;;;;;;;2.38;1.25;;;8.60;1.00;;;;;;5172209;28;20018;-72
2023/03/13 03:22:42;;;;;;;1.02;0.90;;;8.70;1.00;;;;;;5141079;28;20354;-70
2023/03/13 03:25:13;;;;;;;1.67;0.90;;;8.70;1.00;;;;;;5173611;28;20026;-67
2023/03/13 03:27:48;;;;;;;1.98;1.42;;;8.70;1.00;;;;;;5155711;28;20041;-71
2023/03/13 03:30:21;;;;;;;2.33;1.58;;;8.60;1.00;;;;;;5151611;28;20057;-70
2023/03/13 03:33:01;;;;;;;2.67;1.63;;;8.40;1.00;;;;;;5153752;28;20038;-70
2023/03/13 03:35:39;;;;;;;3.67;2.10;;;8.00;1.00;;;;;;5156988;28;20038;-70
2023/03/13 03:38:13;;;;;;;2.53;1.95;;;7.70;1.00;;;;;;5153857;28;20030;-69
2023/03/13 03:40:44;;;;;;;4.28;2.45;;;7.30;1.00;;;;;;5173140;28;20044;-69
2023/03/13 03:43:21;;;;;;;4.38;1.85;;;7.10;1.00;;;;;;5153442;28;20480;-70
2023/03/13 03:45:52;;;;;;;3.20;2.47;;;6.90;1.00;;;;;;5147787;28;20050;-70
2023/03/13 03:48:27;;;;;;;4.60;2.10;;;6.80;1.00;;;;;;5135944;28;20046;-69
2023/03/13 03:50:59;;;;;;;3.80;2.10;;;6.70;1.00;;;;;;5141187;28;20041;-71
2023/03/13 03:53:31;;;;;;;3.20;1.88;;;6.60;1.00;;;;;;5176494;28;20029;-69
2023/03/13 03:56:03;;;;;;;4.53;2.33;;;6.30;1.00;;;;;;5154526;28;20040;-72
2023/03/13 03:58:35;;;;;;;6.05;2.78;;;6.20;1.70;;;;;;5136894;28;20062;-70
2023/03/13 04:01:11;;;;;;;2.33;2.13;;;6.10;48.40;;;;;;5149116;28;20042;-71
2023/03/13 04:03:44;;;;;;;4.18;2.25;;;6.00;71.20;;;;;;5135249;28;20061;-69
2023/03/13 04:06:15;;;;;;;3.10;2.30;;;6.00;96.60;;;;;;5148436;28;20041;-72
2023/03/13 04:08:46;;;;;;;4.03;2.67;;;6.10;95.50;;;;;;5152663;28;20253;-70
2023/03/13 04:11:21;;;;;;;4.07;2.22;;;6.30;99.90;;;;;;5176353;28;20026;-71
2023/03/13 04:13:52;;;;;;;;;;;6.20;1.30;;;;;;5143340;28;20042;-69
2023/03/13 04:16:24;;;;;;;4.20;2.15;;;6.30;18.90;;;;;;5138596;28;20450;-71
2023/03/13 04:19:00;;;;;;;5.88;2.15;;;6.30;1.00;;;;;;5158114;28;20038;-70
2023/03/13 04:21:32;;;;;;;2.40;1.70;;;6.20;1.00;;;;;;5173315;28;20054;-72
2023/03/13 04:24:07;;;;;;;11.00;2.17;;;6.10;1.00;;;;;;5176217;28;20222;-71
2023/03/13 04:26:38;;;;;;;;;;;6.00;30.80;;;;;;5153172;28;20275;-69
2023/03/13 04:29:09;;;;;;;3.20;1.88;;;5.90;38.20;;;;;;5156805;28;19921;-70
2023/03/13 04:31:41;;;;;;;4.05;2.60;;;6.00;11.50;;;;;;5156762;28;20025;-70
2023/03/13 04:34:16;;;;;;;5.43;2.85;;;6.10;11.90;;;;;;5158849;28;20037;-71
2023/03/13 04:36:52;;;;;;;4.15;2.08;;;6.00;15.30;;;;;;5175094;28;20037;-71
2023/03/13 04:39:24;;;;;;;4.85;1.90;;;5.90;21.50;;;;;;5176099;28;20044;-70
2023/03/13 04:41:59;;;;;;;2.38;1.73;;;5.90;26.90;;;;;;5158784;28;20045;-70
2023/03/13 04:44:32;;;;;;;5.32;1.63;;;5.90;27.70;;;;;;5159292;28;20049;-71
2023/03/13 04:47:07;;;;;;;2.15;1.50;;;6.00;8.00;;;;;;5172797;28;20609;-70
2023/03/13 04:49:41;;;;;;;;;;;6.20;1.00;;;;;;5133857;28;20053;-71
2023/03/13 04:52:14;;;;;;;2.28;1.50;;;6.30;1.00;;;;;;5138009;28;19914;-70
2023/03/13 04:54:51;;;;;;;2.17;1.25;;;6.30;1.00;;;;;;5155909;28;20037;-71
2023/03/13 04:57:25;;;;;;;3.03;1.40;;;6.20;1.00;;;;;;5139293;28;20056;-70
2023/03/13 04:59:57;;;;;;;5.15;1.30;;;6.20;99.90;;;;;;5153833;28;20341;-70
2023/03/13 05:02:28;;;;;;;3.58;2.05;;;6.10;99.90;;;;;;5152665;28;20050;-71
2023/03/13 05:05:01;;;;;;;2.97;1.60;;;6.10;30.00;;;;;;5149696;28;20049;-70
2023/03/13 05:07:32;;;;;;;2.42;1.42;;;6.10;16.70;;;;;;5122765;28;20045;-72
2023/03/13 05:10:10;;;;;;;4.20;2.17;;;6.10;18.10;;;;;;5170731;28;20260;-72
2023/03/13 05:12:43;;;;;;;2.92;2.35;;;6.10;51.00;;;;;;5141576;28;20467;-71
2023/03/13 05:15:15;;;;;;;1.33;1.20;;;6.00;39.30;;;;;;5141813;28;20033;-70
2023/03/13 05:17:49;;;;;;;3.97;1.55;;;6.00;23.70;;;;;;5175028;28;20246;-71
2023/03/13 05:20:20;;;;;;;3.38;1.70;;;5.90;34.70;;;;;;5140850;28;20046;-70
2023/03/13 05:22:52;;;;;;;10.20;2.60;;;5.80;28.60;;;;;;5158453;28;20048;-69
2023/03/13 05:25:27;;;;;;;4.50;1.92;;;5.80;61.20;;;;;;5175055;28;20052;-71
2023/03/13 05:28:03;;;;;;;3.08;1.58;;;5.70;69.60;;;;;;5175649;28;20303;-70
2023/03/13 05:30:37;;;;;;;5.57;2.20;;;5.60;94.70;;;;;;5173568;28;20617;-71
2023/03/13 05:33:09;;;;;;;3.03;1.92;;;5.50;99.90;;;;;;5174686;28;20514;-70
2023/03/13 05:35:41;;;;;;;3.63;1.92;;;5.40;99.90;;;;;;5172760;28;20038;-69
2023/03/13 05:38:19;;;;;;;2.83;1.70;;;5.40;99.90;;;;;;5159059;28;20418;-69
2023/03/13 05:40:50;;;;;;;4.57;1.65;;;5.50;99.90;;;;;;5158153;28;20041;-73
2023/03/13 05:43:22;;;;;;;3.17;2.00;;;5.70;99.90;;;;;;5173625;28;20038;-67
2023/03/13 05:45:53;;;;;;;3.88;1.88;;;5.70;99.90;;;;;;5174176;28;20042;-71
2023/03/13 05:48:25;;;;;;;7.20;3.00;;;5.80;90.80;;;;;;5155784;28;20057;-70
2023/03/13 05:50:56;;;;;;;5.45;3.03;;;5.90;47.80;;;;;;5167333;28;20047;-72
2023/03/13 05:53:30;;;;;;;4.90;3.03;;;6.10;27.70;;;;;;5139188;28;20038;-72
2023/03/13 05:56:04;;;;;;;3.92;2.15;;;6.20;1.00;;;;;;5152789;28;20041;-74
2023/03/13 05:58:38;;;;;;;2.70;2.00;;;6.40;1.00;;;;;;5138516;28;20053;-71
2023/03/13 06:01:12;;;;;;;3.85;2.10;;;6.50;1.00;;;;;;5132405;28;20152;-70
2023/03/13 06:03:45;;;;;;;4.03;2.60;;;6.70;1.00;;;;;;5139313;28;20053;-71
2023/03/13 06:06:17;;;;;;;6.88;3.05;;;6.80;1.00;;;;;;5131012;28;20065;-70
2023/03/13 06:08:51;;;;;;;4.75;2.42;;;6.80;1.00;;;;;;5154399;28;20046;-71
2023/03/13 06:11:22;;;;;;;;;;;6.80;1.00;;;;;;5158378;28;20038;-68
2023/03/13 06:13:54;;;;;;;3.17;2.40;;;6.80;1.00;;;;;;5175008;28;19918;-67
2023/03/13 06:16:28;;;;;;;5.30;2.60;;;6.80;1.00;;;;;;5172359;28;20056;-69
2023/03/13 06:19:07;;;;;;;4.43;2.55;;;6.90;1.00;;;;;;5174445;28;20068;-70
2023/03/13 06:21:43;;;;;;;8.55;2.38;;;6.80;1.00;;;;;;5137518;28;20052;-69
2023/03/13 06:24:15;;;;;;;3.33;2.47;;;6.90;1.00;;;;;;5144131;28;20038;-70
2023/03/13 06:26:51;;;;;;;5.35;2.90;;;7.00;1.00;;;;;;5153676;28;20028;-70
2023/03/13 06:29:26;;;;;;;6.40;3.00;;;7.10;1.00;;;;;;5137033;28;20255;-70
2023/03/13 06:31:57;;;;;;;5.03;2.63;;;7.10;1.00;;;;;;5134963;28;20038;-69
2023/03/13 06:34:29;;;;;;;5.70;2.65;;;7.10;1.00;;;;;;5138102;28;20056;-69
2023/03/13 06:37:01;;;;;;;10.20;2.75;;;7.00;1.00;;;;;;5139410;28;20040;-71
2023/03/13 06:39:32;;;;;;;5.70;2.90;;;7.00;1.00;;;;;;5157349;28;20049;-69
2023/03/13 06:42:07;;;;;;;4.43;3.03;;;7.10;1.00;;;;;;5174633;28;20506;-69
2023/03/13 06:44:40;;;;;;;5.47;2.10;;;7.10;1.00;;;;;;5157724;28;20041;-69
2023/03/13 06:47:11;;;;;;;5.75;2.10;;;7.20;1.00;;;;;;5137934;28;20050;-71
2023/03/13 06:49:49;;;;;;;11.77;3.28;;;7.10;1.00;;;;;;5140584;28;20529;-70
2023/03/13 06:52:25;;;;;;;7.13;3.88;;;7.20;1.00;;;;;;5140330;28;20513;-70
2023/03/13 06:54:57;;;;;;;7.47;4.63;;;7.40;1.00;;;;;;5139113;28;20052;-68
2023/03/13 06:57:28;;;;;;;8.00;4.28;;;7.50;1.00;;;;;;5143478;28;20029;-71
2023/03/13 07:00:00;;;;;;;4.70;2.80;;;7.60;1.00;;;;;;5155159;28;20585;-70
2023/03/13 07:02:31;;;;;;;7.65;3.40;;;7.90;1.00;;;;;;5157886;28;20034;-72
2023/03/13 07:05:04;;;;;;;4.93;2.53;;;8.20;1.00;;;;;;5146981;28;20056;-71
2023/03/13 07:07:39;;;;;;;4.70;2.80;;;8.40;1.00;;;;;;5140402;28;20211;-72
2023/03/13 07:10:11;;;;;;;4.28;2.78;;;8.70;1.00;;;;;;5141318;28;20202;-69
2023/03/13 07:12:43;;;;;;;6.70;3.50;;;9.10;1.00;;;;;;5173484;28;20429;-71
2023/03/13 07:15:14;;;;;;;6.60;3.95;;;9.40;1.00;;;;;;5151217;28;20037;-73
2023/03/13 07:17:46;;;;;;;5.57;2.97;;;9.90;99.90;;;;;;5159201;28;20235;-69
2023/03/13 07:20:22;;;;;;;14.23;4.28;;;10.20;99.90;;;;;;5140545;28;20315;-70
2023/03/13 07:22:53;;;;;;;12.48;3.83;;;10.50;99.90;;;;;;5142133;28;20049;-71
2023/03/13 07:25:25;;;;;;;9.75;4.15;;;10.90;99.90;;;;;;5167275;28;20061;-70
2023/03/13 07:28:00;;;;;;;6.97;3.22;;;11.30;99.90;;;;;;5160326;28;20034;-71
2023/03/13 07:30:31;;;;;;;6.72;3.55;;;11.70;99.90;;;;;;5161074;28;20401;-71
2023/03/13 07:33:02;;;;;;;4.25;2.42;;;12.20;99.90;;;;;;5155805;28;20044;-71
2023/03/13 07:35:36;;;;;;;5.28;1.88;;;12.30;99.90;;;;;;5172514;28;20026;-72
2023/03/13 07:38:12;;;;;;;4.15;2.30;;;12.40;99.90;;;;;;5134215;28;20343;-69
2023/03/13 07:41:00;;;;;;;6.93;2.20;;;12.40;99.90;;;;;;5152553;28;20042;-69
2023/03/13 07:43:33;;;;;;;4.35;2.33;;;12.60;99.90;;;;;;5128777;28;20034;-71
2023/03/13 07:46:07;;;;;;;10.05;2.53;;;12.90;99.90;;;;;;5165515;28;20330;-71
2023/03/13 07:48:41;;;;;;;3.65;2.30;;;13.00;99.90;;;;;;5156330;28;20053;-71
2023/03/13 07:51:22;;;;;;;3.30;2.20;;;13.10;99.90;;;;;;5171986;28;20041;-71
2023/03/13 07:53:53;;;;;;;4.43;2.33;;;13.10;99.90;;;;;;5156241;28;20246;-68
2023/03/13 07:56:24;;;;;;;2.85;2.40;;;12.80;99.90;;;;;;5152984;28;20037;-70
2023/03/13 07:58:56;;;;;;;4.82;2.60;;;12.80;99.90;;;;;;5150380;28;20041;-71
2023/03/13 08:01:27;;;;;;;3.53;1.98;;;12.90;99.90;;;;;;5148184;28;20294;-71
2023/03/13 08:04:02;;;;;;;4.60;2.30;;;13.00;99.90;;;;;;5140665;28;20073;-71
2023/03/13 08:06:38;;;;;;;4.38;2.67;;;13.30;99.90;;;;;;5162374;28;20058;-71
2023/03/13 08:09:10;;;;;;;3.78;2.58;;;13.60;99.90;;;;;;5180490;28;20038;-70
2023/03/13 08:11:44;;;;;;;3.17;2.17;;;13.60;99.90;;;;;;5155044;28;20049;-70
2023/03/13 08:14:16;;;;;;;4.13;2.45;;;13.70;99.90;;;;;;5173053;28;20030;-70
2023/03/13 08:16:49;;;;;;;4.72;2.50;;;13.50;1.00;;;;;;5149252;28;20315;-70
2023/03/13 08:19:21;;;;;;;5.20;2.23;;;13.60;99.90;;;;;;5151314;28;20346;-69
2023/03/13 08:21:57;;;;;;;4.38;2.00;;;13.40;99.90;;;;;;5151611;28;20298;-67
2023/03/13 08:24:29;;;;;;;2.42;1.88;;;13.00;81.90;;;;;;5170271;28;20050;-71
2023/03/13 08:27:02;;;;;;;2.42;1.85;;;13.10;99.90;;;;;;5168066;28;20035;-68
2023/03/13 08:29:39;;;;;;;3.10;1.70;;;13.70;96.40;;;;;;5171676;28;20046;-73
2023/03/13 08:32:11;;;;;;;1.60;1.38;;;14.30;1.00;;;;;;5171101;28;20052;-71
2023/03/13 08:34:43;;;;;;;3.22;1.50;;;14.50;1.00;;;;;;5172190;28;20062;-72
2023/03/13 08:37:16;;;;;;;2.55;2.00;;;14.80;99.90;;;;;;5168220;28;20026;-72
2023/03/13 08:39:53;;;;;;;1.70;1.58;;;14.60;1.00;;;;;;5144289;28;20048;-73
2023/03/13 08:42:24;;;;;;;3.10;1.73;;;14.70;1.00;;;;;;5156654;28;20206;-71
2023/03/13 08:44:56;;;;;;;2.08;1.88;;;14.80;1.00;;;;;;5153611;28;20414;-70
2023/03/13 08:47:27;;;;;;;3.90;1.80;;;14.70;1.00;;;;;;5170375;28;20041;-70
2023/03/13 08:50:01;;;;;;;3.63;2.45;;;14.50;1.00;;;;;;5173463;28;20040;-70
2023/03/13 08:52:33;;;;;;;5.90;2.20;;;14.60;1.00;;;;;;5150660;28;20042;-71
2023/03/13 08:55:05;;;;;;;3.55;2.28;;;14.50;1.00;;;;;;5159735;28;20238;-70
2023/03/13 08:57:36;;;;;;;3.65;2.28;;;14.60;1.00;;;;;;5168485;28;20043;-70
2023/03/13 09:00:10;;;;;;;3.72;2.65;;;14.80;1.00;;;;;;5172123;28;20196;-71
2023/03/13 09:02:41;;;;;;;4.28;2.30;;;14.90;1.00;;;;;;5157918;28;20601;-70
2023/03/13 09:05:17;;;;;;;4.00;2.42;;;14.80;1.00;;;;;;5164491;28;20062;-71
2023/03/13 09:07:49;;;;;;;4.05;2.40;;;14.80;1.00;;;;;;5145938;28;20054;-70
2023/03/13 09:10:22;;;;;;;4.25;2.20;;;14.70;1.00;;;;;;5154128;28;20335;-72
2023/03/13 09:12:54;;;;;;;3.35;2.03;;;14.60;1.00;;;;;;5154570;28;20034;-70
2023/03/13 09:15:28;;;;;;;2.80;2.20;;;14.20;1.00;;;;;;5155807;28;20251;-70
2023/03/13 09:18:05;;;;;;;3.40;2.47;;;14.30;1.00;;;;;;5174293;28;20032;-71
2023/03/13 09:20:37;;;;;;;2.33;2.08;;;14.70;1.00;;;;;;5141860;28;20046;-70
2023/03/13 09:23:08;;;;;;;3.45;2.20;;;15.00;99.90;;;;;;5174858;28;20280;-73
2023/03/13 09:25:43;;;;;;;3.15;2.10;;;14.80;99.90;;;;;;5170398;28;20054;-69
2023/03/13 09:28:15;;;;;;;4.05;2.08;;;14.80;99.90;;;;;;5159387;28;20235;-71
2023/03/13 09:30:48;;;;;;;2.22;1.90;;;15.00;99.90;;;;;;5153018;28;20045;-69
2023/03/13 09:33:26;;;;;;;2.10;1.88;;;15.20;99.90;;;;;;5154118;28;20333;-70
2023/03/13 09:35:57;;;;;;;3.40;1.70;;;15.20;99.90;;;;;;5147475;28;20045;-70
2023/03/13 09:38:34;;;;;;;2.55;1.65;;;14.90;99.90;;;;;;5173519;28;20037;-70
2023/03/13 09:41:52;;;;;;;2.20;2.00;;;14.70;99.90;;;;;;5172272;28;20223;-72
2023/03/13 09:44:51;;;;;;;2.67;1.80;;;14.90;99.90;;;;;;5140593;28;20376;-70
2023/03/13 09:47:32;;;;;;;1.90;1.77;;;15.30;99.90;;;;;;5111659;28;20042;-67
2023/03/13 09:50:24;;;;;;;1.52;1.40;;;15.30;99.90;;;;;;5153684;28;20040;-71
2023/03/13 09:53:12;;;;;;;2.20;1.73;;;15.50;99.90;;;;;;5150274;28;20046;-69
2023/03/13 09:55:48;;;;;;;2.60;1.85;;;15.60;99.90;;;;;;5172824;28;20491;-71
2023/03/13 09:58:22;;;;;;;3.10;1.55;;;15.60;99.90;;;;;;5148032;28;20375;-70
2023/03/13 10:01:00;;;;;;;3.63;2.60;;;15.80;99.90;;;;;;5167962;28;20037;-70
2023/03/13 10:03:42;;;;;;;4.90;3.72;;;16.00;80.70;;;;;;5168473;28;20348;-70
2023/03/13 10:06:23;;;;;;;4.30;3.53;;;16.30;91.70;;;;;;5153808;28;20065;-72
2023/03/13 10:09:00;;;;;;;4.32;3.80;;;16.30;11.40;;;;;;5168106;28;20045;-70
2023/03/13 10:12:02;;;;;;;6.97;4.07;;;16.20;1.10;;;;;;5151739;28;20056;-71
2023/03/13 10:14:52;;;;;;;5.07;3.47;;;16.60;1.00;;;;;;5153663;28;20048;-71
2023/03/13 10:17:38;;;;;;;6.05;3.72;;;16.60;1.00;;;;;;5173709;28;20038;-67
2023/03/13 10:20:33;;;;;;;5.88;3.47;;;16.70;1.00;;;;;;5152818;28;20221;-71
2023/03/13 10:23:20;;;;;;;4.70;3.95;;;16.60;1.00;;;;;;5159630;28;20034;-68
2023/03/13 10:25:56;;;;;;;5.97;3.50;;;16.30;1.00;;;;;;5168594;28;20052;-68
2023/03/13 10:28:30;;;;;;;4.75;3.38;;;16.30;1.00;;;;;;5158615;28;20405;-68
2023/03/13 10:31:17;;;;;;;5.68;3.38;;;16.60;1.00;;;;;;5149098;28;20226;-69
2023/03/13 10:33:48;;;;;;;5.28;3.33;;;17.50;1.00;;;;;;5167222;28;20034;-72
2023/03/13 10:36:25;;;;;;;4.53;3.47;;;18.30;1.00;;;;;;5147534;28;20038;-70
2023/03/13 10:38:56;;;;;;;4.65;2.67;;;18.50;1.00;;;;;;5171512;28;20033;-69
2023/03/13 10:41:35;;;;;;;3.90;2.90;;;18.80;1.00;;;;;;5172135;28;20048;-71
2023/03/13 10:44:20;;;;;;;7.07;3.30;;;19.20;1.00;;;;;;5170820;28;20045;-71
2023/03/13 10:47:01;;;;;;;4.80;2.85;;;19.70;1.00;;;;;;5169816;28;20457;-66
2023/03/13 10:49:33;;;;;;;3.80;2.90;;;20.40;1.00;;;;;;5155853;28;20029;-69
2023/03/13 10:52:06;;;;;;;8.45;2.67;;;20.60;1.00;;;;;;5151039;28;20053;-69
2023/03/13 10:54:44;;;;;;;7.80;2.97;;;20.70;1.00;;;;;;5133432;28;20052;-68
2023/03/13 10:57:32;;;;;;;3.50;2.45;;;20.00;1.00;;;;;;5144279;28;20534;-71
2023/03/13 11:00:37;;;;;;;5.55;2.55;;;19.50;99.90;;;;;;5136835;28;20052;-70
2023/03/13 11:03:25;;;;;;;7.82;2.88;;;19.20;1.00;;;;;;5169728;28;20049;-70
2023/03/13 11:06:02;;;;;;;6.80;3.15;;;18.90;1.00;;;;;;5144971;28;20049;-70
2023/03/13 11:08:43;;;;;;;3.15;2.85;;;18.50;1.00;;;;;;5152791;28;20064;-72
2023/03/13 11:11:19;;;;;;;3.45;2.55;;;18.40;1.00;;;;;;5166679;28;20034;-70
2023/03/13 11:13:50;;;;;;;4.50;2.75;;;18.70;1.00;;;;;;5164740;28;20034;-73
2023/03/13 11:16:28;;;;;;;4.38;3.25;;;18.90;1.00;;;;;;5156280;28;20038;-69
2023/03/13 11:19:18;;;;;;;5.03;3.10;;;18.70;1.00;;;;;;5134589;28;20034;-72
2023/03/13 11:21:58;;;;;;;3.88;2.83;;;18.10;1.00;;;;;;5144603;28;20056;-70
2023/03/13 11:24:58;;;;;;;4.03;2.90;;;17.70;1.00;;;;;;5142059;28;20252;-69
2023/03/13 11:27:41;;;;;;;4.53;2.70;;;17.80;1.00;;;;;;5160721;28;20054;-72
2023/03/13 11:30:22;;;;;;;4.75;2.78;;;18.10;1.00;;;;;;5166703;28;20050;-73
2023/03/13 11:33:35;;;;;;;3.63;2.45;;;18.30;1.00;;;;;;5170965;28;20334;-72
2023/03/13 11:36:30;;;;;;;12.38;3.20;;;18.60;1.00;;;;;;5153030;28;20052;-71
2023/03/13 11:39:41;;;;;;;3.05;2.35;;;18.80;1.00;;;;;;5153170;28;20044;-70
2023/03/13 11:42:32;;;;;;;5.38;2.47;;;18.90;1.00;;;;;;5171400;28;20042;-71
2023/03/13 11:45:06;;;;;;;4.50;2.20;;;19.50;1.00;;;;;;5137678;28;20057;-72
2023/03/13 11:47:44;;;;;;;;;;;19.60;1.00;;;;;;5170509;28;20349;-71
2023/03/13 11:50:27;;;;;;;5.60;2.03;;;19.10;1.00;;;;;;5146460;28;19916;-70
2023/03/13 11:53:29;;;;;;;5.25;2.05;;;19.10;1.00;;;;;;5133785;28;20252;-69
2023/03/13 11:56:30;;;;;;;2.40;2.20;;;18.60;1.00;;;;;;5151729;28;20042;-69
2023/03/13 11:59:27;;;;;;;3.10;2.17;;;18.70;1.00;;;;;;5154577;28;20335;-70
2023/03/13 12:02:09;;;;;;;2.53;2.25;;;18.30;99.90;;;;;;5149614;28;20026;-68
2023/03/13 12:04:53;;;;;;;2.75;2.05;;;17.60;1.00;;;;;;5122963;28;20042;-70
2023/03/13 12:07:37;;;;;;;3.33;2.30;;;17.40;1.00;;;;;;5154664;28;20364;-70
2023/03/13 12:10:21;;;;;;;2.70;2.08;;;17.50;1.00;;;;;;5148585;28;20030;-70
2023/03/13 12:13:22;;;;;;;4.07;2.20;;;17.60;99.90;;;;;;5163833;28;20041;-70
2023/03/13 12:16:06;;;;;;;3.30;2.33;;;17.60;99.90;;;;;;5162382;28;20248;-73
2023/03/13 12:18:41;;;;;;;3.43;2.40;;;17.50;99.90;;;;;;5153291;28;20038;-69
2023/03/13 12:21:41;;;;;;;7.07;2.47;;;17.50;99.90;;;;;;5155851;28;20131;-69
2023/03/13 12:24:45;;;;;;;2.85;2.33;;;17.60;99.90;;;;;;5139315;28;20533;-71
2023/03/13 12:27:32;;;;;;;4.43;2.47;;;17.90;1.00;;;;;;5147289;28;20263;-71
2023/03/13 12:30:42;;;;;;;6.13;2.30;;;18.30;1.00;;;;;;5153180;28;20042;-72
2023/03/13 12:33:24;;;;;;;3.65;2.25;;;18.50;1.00;;;;;;5137234;28;20053;-70
2023/03/13 12:36:24;;;;;;;2.55;2.05;;;18.40;99.90;;;;;;5166175;28;20234;-69
2023/03/13 12:39:46;;;;;;;2.72;2.03;;;18.70;99.90;;;;;;5167000;28;20041;-71
2023/03/13 12:42:35;;;;;;;4.25;1.77;;;18.70;99.90;;;;;;5155213;28;20114;-73
2023/03/13 12:45:18;;;;;;;2.83;1.88;;;18.80;99.90;;;;;;5135751;28;20042;-71
2023/03/13 12:48:34;;;;;;;6.03;2.05;;;18.70;99.90;;;;;;5154536;28;20034;-69
2023/03/13 12:51:50;;;;;;;4.53;1.98;;;18.90;99.90;;;;;;5153821;28;20343;-69
2023/03/13 12:55:19;;;;;;;2.38;1.98;;;18.70;99.90;;;;;;5164510;28;20488;-71
2023/03/13 12:58:29;;;;;;;3.78;2.13;;;18.30;99.90;;;;;;5155561;28;20472;-68
2023/03/13 13:01:05;;;;;;;3.10;2.28;;;18.00;99.90;;;;;;5162717;28;20026;-70
2023/03/13 13:03:46;;;;;;;2.70;1.80;;;17.90;99.90;;;;;;5167072;28;20060;-70
2023/03/13 13:06:20;;;;;;;3.42;2.17;;;17.80;99.90;;;;;;5161760;28;20040;-70
2023/03/13 13:08:52;;;;;;;3.95;2.40;;;17.60;99.90;;;;;;5159247;28;20330;-70
2023/03/13 13:11:38;;;;;;;2.95;1.95;;;17.20;99.90;;;;;;5174546;28;20105;-67
2023/03/13 13:14:18;;;;;;;2.42;2.00;;;17.00;99.90;;;;;;5160818;28;20034;-71
2023/03/13 13:17:38;;;;;;;3.70;2.22;;;17.00;99.90;;;;;;5150497;28;20283;-69
2023/03/13 13:20:41;;;;;;;4.70;2.20;;;16.80;99.90;;;;;;5145472;28;20369;-70
2023/03/13 13:23:33;;;;;;;2.97;2.30;;;16.80;99.90;;;;;;5153836;28;20045;-68
2023/03/13 13:26:33;;;;;;;3.92;2.25;;;16.90;99.90;;;;;;5166182;28;20044;-70
2023/03/13 13:29:31;;;;;;;3.28;1.83;;;16.70;99.90;;;;;;5157203;28;20040;-68
2023/03/13 13:32:07;;;;;;;4.78;2.10;;;16.70;99.90;;;;;;5170569;28;20046;-68
2023/03/13 13:34:53;;;;;;;4.07;1.92;;;16.40;99.90;;;;;;5172898;28;20478;-69
2023/03/13 13:37:30;;;;;;;1.98;1.77;;;16.40;99.90;;;;;;5154204;28;20050;-73
2023/03/13 13:40:27;;;;;;;2.30;1.92;;;16.50;1.00;;;;;;5146800;28;20038;-71
2023/03/13 13:43:02;;;;;;;2.83;2.08;;;16.50;99.90;;;;;;5155639;28;20042;-71
2023/03/13 13:45:59;;;;;;;3.67;2.33;;;16.70;99.90;;;;;;5152539;28;20309;-69
2023/03/13 13:48:42;;;;;;;4.03;2.63;;;16.90;99.90;;;;;;5190455;28;20037;-71
2023/03/13 13:51:17;;;;;;;3.05;1.80;;;17.20;99.90;;;;;;5170846;28;20114;-69
2023/03/13 13:53:59;;;;;;;2.13;1.60;;;17.30;99.90;;;;;;5151560;28;20041;-69
2023/03/13 13:56:39;;;;;;;3.85;1.88;;;17.40;99.90;;;;;;5171649;28;20029;-70
2023/03/13 13:59:20;;;;;;;1.90;1.70;;;17.30;99.90;;;;;;5170119;28;20022;-68